createdAt,value
2023-05-30T00:00:25.795Z,0.00
2023-05-30T00:01:25.792Z,0.00
2023-05-30T00:02:25.906Z,0.00
2023-05-30T00:03:25.881Z,0.00
2023-05-30T00:04:25.801Z,0.00
2023-05-30T00:05:25.789Z,0.00
2023-05-30T00:06:25.754Z,0.00
2023-05-30T00:07:25.731Z,0.00
2023-05-30T00:08:25.815Z,0.00
2023-05-30T00:09:25.732Z,0.00
2023-05-30T00:10:25.760Z,0.00
2023-05-30T00:11:25.717Z,0.00
2023-05-30T00:12:25.726Z,0.00
2023-05-30T00:13:25.713Z,0.00
2023-05-30T00:14:25.696Z,0.00
2023-05-30T00:15:25.727Z,0.00
2023-05-30T00:16:25.917Z,0.00
2023-05-30T00:17:25.724Z,0.00
2023-05-30T00:18:25.677Z,0.00
2023-05-30T00:19:25.675Z,0.00
2023-05-30T00:20:25.650Z,0.00
2023-05-30T00:21:25.650Z,0.00
2023-05-30T00:22:25.641Z,0.00
2023-05-30T00:23:25.667Z,0.00
2023-05-30T00:24:25.581Z,0.00
2023-05-30T00:25:25.606Z,0.00
2023-05-30T00:26:25.612Z,0.00
2023-05-30T00:27:25.596Z,0.00
2023-05-30T00:28:25.624Z,0.00
2023-05-30T00:29:25.568Z,0.00
2023-05-30T00:30:25.593Z,0.00
2023-05-30T00:31:25.570Z,0.00
2023-05-30T00:32:25.567Z,0.00
2023-05-30T00:33:25.509Z,0.00
2023-05-30T00:34:25.546Z,0.00
2023-05-30T00:35:25.546Z,0.00
2023-05-30T00:36:25.525Z,0.00
2023-05-30T00:37:25.511Z,0.00
2023-05-30T00:38:25.531Z,0.00
2023-05-30T00:39:25.493Z,0.00
2023-05-30T00:40:25.513Z,0.00
2023-05-30T00:41:25.475Z,0.00
2023-05-30T00:42:25.469Z,0.00
2023-05-30T00:43:25.460Z,0.00
2023-05-30T00:44:25.474Z,0.00
2023-05-30T00:45:25.434Z,0.00
2023-05-30T00:46:25.496Z,0.00
2023-05-30T00:47:25.441Z,0.00
2023-05-30T00:48:25.424Z,0.00
2023-05-30T00:49:25.445Z,0.00
2023-05-30T00:50:25.523Z,0.00
2023-05-30T00:51:25.414Z,0.00
2023-05-30T00:52:25.374Z,0.00
2023-05-30T00:53:25.352Z,0.00
2023-05-30T00:54:25.368Z,0.00
2023-05-30T00:55:25.377Z,0.00
2023-05-30T00:56:25.342Z,0.00
2023-05-30T00:57:25.371Z,0.00
2023-05-30T00:58:25.358Z,0.00
2023-05-30T00:59:25.314Z,0.00
2023-05-30T01:00:25.320Z,0.00
2023-05-30T01:01:25.434Z,0.00
2023-05-30T01:02:25.389Z,0.00
2023-05-30T01:03:25.500Z,0.00
2023-05-30T01:04:25.338Z,0.00
2023-05-30T01:05:25.298Z,0.00
2023-05-30T01:06:25.304Z,0.00
2023-05-30T01:07:25.282Z,0.00
2023-05-30T01:08:25.264Z,0.00
2023-05-30T01:09:25.296Z,0.00
2023-05-30T01:10:25.254Z,0.00
2023-05-30T01:11:25.263Z,0.00
2023-05-30T01:12:25.429Z,0.00
2023-05-30T01:13:25.221Z,0.00
2023-05-30T01:14:25.239Z,0.00
2023-05-30T01:15:25.199Z,0.00
2023-05-30T01:16:25.230Z,0.00
2023-05-30T01:17:25.227Z,0.00
2023-05-30T01:18:25.148Z,0.00
2023-05-30T01:19:25.195Z,0.00
2023-05-30T01:20:25.183Z,0.00
2023-05-30T01:21:25.178Z,0.00
2023-05-30T01:22:58.393Z,0.00
2023-05-30T01:23:25.107Z,0.00
2023-05-30T01:24:25.109Z,0.00
2023-05-30T01:25:25.131Z,0.00
2023-05-30T01:26:25.108Z,0.00
2023-05-30T01:27:25.142Z,0.00
2023-05-30T01:28:25.097Z,0.00
2023-05-30T01:29:25.107Z,0.00
2023-05-30T01:30:25.076Z,0.00
2023-05-30T01:31:25.124Z,0.00
2023-05-30T01:32:25.096Z,0.00
2023-05-30T01:33:25.026Z,0.00
2023-05-30T01:34:25.101Z,0.00
2023-05-30T01:35:25.048Z,0.00
2023-05-30T01:36:25.059Z,0.00
2023-05-30T01:37:25.036Z,0.00
2023-05-30T01:38:25.068Z,0.00
2023-05-30T01:39:25.021Z,0.00
2023-05-30T01:40:25.037Z,0.00
2023-05-30T01:41:24.980Z,0.00
2023-05-30T01:42:25.178Z,0.00
2023-05-30T01:43:24.949Z,0.00
2023-05-30T01:44:24.968Z,0.00
2023-05-30T01:45:24.963Z,0.00
2023-05-30T01:46:25.083Z,0.00
2023-05-30T01:47:24.954Z,0.00
2023-05-30T01:48:24.936Z,0.00
2023-05-30T01:49:24.944Z,0.00
2023-05-30T01:50:24.896Z,0.00
2023-05-30T01:51:25.023Z,0.00
2023-05-30T01:52:24.900Z,0.00
2023-05-30T01:53:24.916Z,0.00
2023-05-30T01:54:24.930Z,0.00
2023-05-30T01:55:24.902Z,0.00
2023-05-30T01:56:24.854Z,0.00
2023-05-30T01:57:24.887Z,0.00
2023-05-30T01:58:24.851Z,0.00
2023-05-30T01:59:24.819Z,0.00
2023-05-30T02:00:24.833Z,0.00
2023-05-30T02:01:24.868Z,0.00
2023-05-30T02:02:24.813Z,0.00
2023-05-30T02:03:24.828Z,0.00
2023-05-30T02:04:24.794Z,0.00
2023-05-30T02:05:24.813Z,0.00
2023-05-30T02:06:24.798Z,0.00
2023-05-30T02:07:24.766Z,0.00
2023-05-30T02:08:24.777Z,0.00
2023-05-30T02:09:24.756Z,0.00
2023-05-30T02:10:24.754Z,0.00
2023-05-30T02:11:24.742Z,0.00
2023-05-30T02:12:24.723Z,0.00
2023-05-30T02:13:24.706Z,0.00
2023-05-30T02:14:24.687Z,0.00
2023-05-30T02:15:24.680Z,0.00
2023-05-30T02:16:24.713Z,0.00
2023-05-30T02:17:24.722Z,0.00
2023-05-30T02:18:24.661Z,0.00
2023-05-30T02:19:24.651Z,0.00
2023-05-30T02:20:24.694Z,0.00
2023-05-30T02:21:24.646Z,0.00
2023-05-30T02:22:24.654Z,0.00
2023-05-30T02:23:24.615Z,0.00
2023-05-30T02:24:25.991Z,0.00
2023-05-30T02:25:24.588Z,4.00
2023-05-30T02:26:24.633Z,4.00
2023-05-30T02:27:24.581Z,4.00
2023-05-30T02:28:24.617Z,4.00
2023-05-30T02:29:24.581Z,0.00
2023-05-30T02:30:24.552Z,0.00
2023-05-30T02:31:24.532Z,0.00
2023-05-30T02:32:24.741Z,4.00
2023-05-30T02:33:24.539Z,4.00
2023-05-30T02:34:24.514Z,0.00
2023-05-30T02:35:24.492Z,0.00
2023-05-30T02:36:24.504Z,4.00
2023-05-30T02:37:24.496Z,4.00
2023-05-30T02:38:24.518Z,4.00
2023-05-30T02:39:24.471Z,4.00
2023-05-30T02:40:24.449Z,4.00
2023-05-30T02:41:24.448Z,8.00
2023-05-30T02:42:24.551Z,8.00
2023-05-30T02:43:24.436Z,8.00
2023-05-30T02:44:24.432Z,4.00
2023-05-30T02:45:24.450Z,8.00
2023-05-30T02:46:24.417Z,8.00
2023-05-30T02:47:24.407Z,8.00
2023-05-30T02:48:24.394Z,8.00
2023-05-30T02:49:24.386Z,12.00
2023-05-30T02:50:24.371Z,12.00
2023-05-30T02:51:24.377Z,16.00
2023-05-30T02:52:24.354Z,16.00
2023-05-30T02:53:24.383Z,16.00
2023-05-30T02:54:24.370Z,20.00
2023-05-30T02:55:24.528Z,24.00
2023-05-30T02:56:24.308Z,28.00
2023-05-30T02:57:24.316Z,28.00
2023-05-30T02:58:24.343Z,32.00
2023-05-30T02:59:24.296Z,40.00
2023-05-30T03:00:24.268Z,40.00
2023-05-30T03:01:24.355Z,44.00
2023-05-30T03:02:24.365Z,48.00
2023-05-30T03:03:24.271Z,56.00
2023-05-30T03:04:24.244Z,60.00
2023-05-30T03:05:24.252Z,64.00
2023-05-30T03:06:24.282Z,72.00
2023-05-30T03:07:24.257Z,80.00
2023-05-30T03:08:26.481Z,88.00
2023-05-30T03:09:24.182Z,92.00
2023-05-30T03:10:24.228Z,104.00
2023-05-30T03:11:24.406Z,112.00
2023-05-30T03:12:24.167Z,124.00
2023-05-30T03:13:24.155Z,132.00
2023-05-30T03:14:24.166Z,144.00
2023-05-30T03:15:24.149Z,152.00
2023-05-30T03:16:24.173Z,168.00
2023-05-30T03:17:24.171Z,184.00
2023-05-30T03:18:24.116Z,200.00
2023-05-30T03:19:24.102Z,216.00
2023-05-30T03:20:24.093Z,240.00
2023-05-30T03:21:24.091Z,276.00
2023-05-30T03:22:24.111Z,372.00
2023-05-30T03:23:24.082Z,388.00
2023-05-30T03:24:24.044Z,376.00
2023-05-30T03:25:24.039Z,336.00
2023-05-30T03:26:24.031Z,316.00
2023-05-30T03:27:24.023Z,332.00
2023-05-30T03:28:24.000Z,344.00
2023-05-30T03:29:24.009Z,356.00
2023-05-30T03:30:24.006Z,372.00
2023-05-30T03:31:24.007Z,392.00
2023-05-30T03:32:23.999Z,408.00
2023-05-30T03:33:23.971Z,428.00
2023-05-30T03:34:23.989Z,456.00
2023-05-30T03:35:23.952Z,508.00
2023-05-30T03:36:23.950Z,552.00
2023-05-30T03:37:23.943Z,600.00
2023-05-30T03:38:23.905Z,648.00
2023-05-30T03:39:24.099Z,628.00
2023-05-30T03:40:23.899Z,616.00
2023-05-30T03:41:23.883Z,672.00
2023-05-30T03:42:23.875Z,740.00
2023-05-30T03:43:23.892Z,884.00
2023-05-30T03:44:23.884Z,1716.00
2023-05-30T03:45:23.871Z,1468.00
2023-05-30T03:46:23.991Z,1072.00
2023-05-30T03:47:23.856Z,1112.00
2023-05-30T03:48:23.855Z,1144.00
2023-05-30T03:49:23.838Z,1156.00
2023-05-30T03:50:23.820Z,1176.00
2023-05-30T03:51:23.787Z,1208.00
2023-05-30T03:52:23.784Z,1236.00
2023-05-30T03:53:23.775Z,1264.00
2023-05-30T03:54:23.792Z,1300.00
2023-05-30T03:55:23.785Z,1324.00
2023-05-30T03:56:23.770Z,1364.00
2023-05-30T03:57:23.752Z,1408.00
2023-05-30T03:58:23.751Z,1444.00
2023-05-30T03:59:23.763Z,1480.00
2023-05-30T04:00:23.726Z,1520.00
2023-05-30T04:01:23.729Z,1560.00
2023-05-30T04:02:23.887Z,1592.00
2023-05-30T04:03:23.746Z,1628.00
2023-05-30T04:04:23.713Z,1660.00
2023-05-30T04:05:23.706Z,1692.00
2023-05-30T04:06:23.674Z,1724.00
2023-05-30T04:07:23.671Z,1752.00
2023-05-30T04:08:23.670Z,1788.00
2023-05-30T04:09:23.648Z,1820.00
2023-05-30T04:10:23.656Z,1856.00
2023-05-30T04:11:23.602Z,1888.00
2023-05-30T04:12:23.634Z,1924.00
2023-05-30T04:13:23.617Z,1964.00
2023-05-30T04:14:23.584Z,1996.00
2023-05-30T04:15:23.551Z,2024.00
2023-05-30T04:16:23.582Z,2064.00
2023-05-30T04:17:23.586Z,2100.00
2023-05-30T04:18:23.598Z,2132.00
2023-05-30T04:19:23.532Z,2160.00
2023-05-30T04:20:23.566Z,2200.00
2023-05-30T04:21:23.551Z,2232.00
2023-05-30T04:22:23.539Z,2264.00
2023-05-30T04:23:23.513Z,2304.00
2023-05-30T04:24:23.715Z,2344.00
2023-05-30T04:25:23.522Z,2376.00
2023-05-30T04:26:23.496Z,2404.00
2023-05-30T04:27:23.489Z,2436.00
2023-05-30T04:28:23.479Z,2468.00
2023-05-30T04:29:23.478Z,2500.00
2023-05-30T04:30:23.464Z,2532.00
2023-05-30T04:31:23.608Z,2560.00
2023-05-30T04:32:23.426Z,2592.00
2023-05-30T04:33:23.444Z,2620.00
2023-05-30T04:34:23.427Z,2668.00
2023-05-30T04:35:23.424Z,2688.00
2023-05-30T04:36:23.404Z,2724.00
2023-05-30T04:37:23.427Z,2760.00
2023-05-30T04:38:23.400Z,2792.00
2023-05-30T04:39:23.368Z,2752.00
2023-05-30T04:40:23.360Z,2772.00
2023-05-30T04:41:23.453Z,2860.00
2023-05-30T04:42:23.346Z,2888.00
2023-05-30T04:43:23.376Z,2920.00
2023-05-30T04:44:23.342Z,2948.00
2023-05-30T04:45:23.343Z,2980.00
2023-05-30T04:46:23.434Z,2996.00
2023-05-30T04:47:23.415Z,3036.00
2023-05-30T04:48:23.300Z,3072.00
2023-05-30T04:49:23.347Z,3100.00
2023-05-30T04:50:23.299Z,3144.00
2023-05-30T04:51:23.259Z,3172.00
2023-05-30T04:52:23.274Z,3204.00
2023-05-30T04:53:23.337Z,3236.00
2023-05-30T04:54:23.265Z,3256.00
2023-05-30T04:55:23.262Z,3284.00
2023-05-30T04:56:23.276Z,3320.00
2023-05-30T04:57:24.603Z,3352.00
2023-05-30T04:58:23.212Z,3352.00
2023-05-30T04:59:23.226Z,3400.00
2023-05-30T05:00:23.228Z,3428.00
2023-05-30T05:01:23.260Z,3408.00
2023-05-30T05:02:23.204Z,3432.00
2023-05-30T05:03:23.223Z,3460.00
2023-05-30T05:04:23.160Z,3464.00
2023-05-30T05:05:23.216Z,3496.00
2023-05-30T05:06:23.225Z,3516.00
2023-05-30T05:07:38.040Z,3544.00
2023-05-30T05:08:23.172Z,3556.00
2023-05-30T05:09:23.181Z,3536.00
2023-05-30T05:10:23.126Z,3608.00
2023-05-30T05:11:23.132Z,3632.00
2023-05-30T05:12:23.140Z,3660.00
2023-05-30T05:13:23.140Z,3684.00
2023-05-30T05:14:23.095Z,3708.00
2023-05-30T05:15:23.136Z,3736.00
2023-05-30T05:16:23.126Z,3756.00
2023-05-30T05:17:23.130Z,3800.00
2023-05-30T05:18:23.098Z,3832.00
2023-05-30T05:19:23.084Z,3820.00
2023-05-30T05:20:23.081Z,3864.00
2023-05-30T05:21:23.070Z,3796.00
2023-05-30T05:22:23.064Z,3904.00
2023-05-30T05:23:23.274Z,3968.00
2023-05-30T05:24:23.028Z,3948.00
2023-05-30T05:25:22.994Z,3920.00
2023-05-30T05:26:23.850Z,3956.00
2023-05-30T05:27:23.010Z,3936.00
2023-05-30T05:28:22.969Z,3944.00
2023-05-30T05:29:23.016Z,4044.00
2023-05-30T05:30:22.996Z,4020.00
2023-05-30T05:31:23.020Z,4012.00
2023-05-30T05:32:23.050Z,4088.00
2023-05-30T05:33:22.946Z,4052.00
2023-05-30T05:34:22.919Z,4048.00
2023-05-30T05:35:22.942Z,4032.00
2023-05-30T05:36:22.927Z,3640.00
2023-05-30T05:37:22.937Z,4052.00
2023-05-30T05:38:22.947Z,4076.00
2023-05-30T05:39:22.918Z,4164.00
2023-05-30T05:40:22.873Z,4108.00
2023-05-30T05:41:22.875Z,4124.00
2023-05-30T05:42:22.895Z,4176.00
2023-05-30T05:43:22.894Z,4196.00
2023-05-30T05:44:24.595Z,4212.00
2023-05-30T05:45:22.901Z,4280.00
2023-05-30T05:46:22.946Z,4248.00
2023-05-30T05:47:22.905Z,4228.00
2023-05-30T05:48:22.869Z,4268.00
2023-05-30T05:49:22.840Z,4244.00
2023-05-30T05:50:22.823Z,4264.00
2023-05-30T05:51:22.828Z,4308.00
2023-05-30T05:52:22.791Z,4276.00
2023-05-30T05:53:22.826Z,4336.00
2023-05-30T05:54:22.887Z,4360.00
2023-05-30T05:55:22.776Z,4340.00
2023-05-30T05:56:22.791Z,4356.00
2023-05-30T05:57:22.791Z,4360.00
2023-05-30T05:58:22.739Z,4372.00
2023-05-30T05:59:22.750Z,4384.00
2023-05-30T06:00:22.767Z,4376.00
2023-05-30T06:01:22.727Z,4380.00
2023-05-30T06:02:22.758Z,4384.00
2023-05-30T06:03:22.788Z,4396.00
2023-05-30T06:04:22.832Z,4436.00
2023-05-30T06:05:22.714Z,4432.00
2023-05-30T06:06:22.716Z,4448.00
2023-05-30T06:07:22.712Z,4464.00
2023-05-30T06:08:22.779Z,4408.00
2023-05-30T06:09:22.694Z,4504.00
2023-05-30T06:10:22.680Z,4512.00
2023-05-30T06:11:22.673Z,4532.00
2023-05-30T06:12:22.666Z,4556.00
2023-05-30T06:13:22.654Z,4564.00
2023-05-30T06:14:22.674Z,4580.00
2023-05-30T06:15:22.616Z,4616.00
2023-05-30T06:16:22.650Z,4624.00
2023-05-30T06:17:22.702Z,4652.00
2023-05-30T06:18:22.816Z,4684.00
2023-05-30T06:19:22.591Z,4668.00
2023-05-30T06:20:22.596Z,4676.00
2023-05-30T06:21:22.592Z,4712.00
2023-05-30T06:22:22.602Z,4728.00
2023-05-30T06:23:22.588Z,4752.00
2023-05-30T06:24:22.567Z,4780.00
2023-05-30T06:25:22.751Z,4796.00
2023-05-30T06:26:22.616Z,4840.00
2023-05-30T06:27:22.548Z,4852.00
2023-05-30T06:28:22.536Z,4892.00
2023-05-30T06:29:22.577Z,4844.00
2023-05-30T06:30:22.513Z,4976.00
2023-05-30T06:31:22.565Z,5008.00
2023-05-30T06:32:22.576Z,5052.00
2023-05-30T06:33:22.578Z,5056.00
2023-05-30T06:34:22.493Z,5068.00
2023-05-30T06:35:22.485Z,5092.00
2023-05-30T06:36:22.485Z,5124.00
2023-05-30T06:37:22.472Z,5160.00
2023-05-30T06:38:22.504Z,5164.00
2023-05-30T06:39:22.464Z,5196.00
2023-05-30T06:40:22.433Z,5240.00
2023-05-30T06:41:22.466Z,5256.00
2023-05-30T06:42:22.504Z,5276.00
2023-05-30T06:43:22.412Z,5292.00
2023-05-30T06:44:22.427Z,5324.00
2023-05-30T06:45:22.398Z,5328.00
2023-05-30T06:46:22.433Z,5348.00
2023-05-30T06:47:22.387Z,5372.00
2023-05-30T06:48:22.381Z,5380.00
2023-05-30T06:49:22.395Z,5400.00
2023-05-30T06:50:22.363Z,5416.00
2023-05-30T06:51:22.379Z,5448.00
2023-05-30T06:52:22.352Z,5448.00
2023-05-30T06:53:22.388Z,5448.00
2023-05-30T06:54:22.347Z,5488.00
2023-05-30T06:55:22.355Z,5480.00
2023-05-30T06:56:22.333Z,5296.00
2023-05-30T06:57:22.336Z,5476.00
2023-05-30T06:58:22.466Z,5488.00
2023-05-30T06:59:22.388Z,5476.00
2023-05-30T07:00:22.299Z,5512.00
2023-05-30T07:01:22.345Z,5512.00
2023-05-30T07:02:22.497Z,5492.00
2023-05-30T07:03:22.302Z,5484.00
2023-05-30T07:04:22.294Z,5480.00
2023-05-30T07:05:22.270Z,5472.00
2023-05-30T07:06:22.258Z,5348.00
2023-05-30T07:07:22.271Z,5468.00
2023-05-30T07:08:22.226Z,5480.00
2023-05-30T07:09:22.289Z,5488.00
2023-05-30T07:10:22.227Z,5476.00
2023-05-30T07:11:22.462Z,5476.00
2023-05-30T07:12:23.477Z,5468.00
2023-05-30T07:13:22.226Z,5476.00
2023-05-30T07:14:22.398Z,5476.00
2023-05-30T07:15:22.200Z,5464.00
2023-05-30T07:16:22.216Z,5472.00
2023-05-30T07:17:22.546Z,5480.00
2023-05-30T07:18:22.181Z,5380.00
2023-05-30T07:19:22.426Z,5444.00
2023-05-30T07:20:22.270Z,5436.00
2023-05-30T07:21:22.174Z,5412.00
2023-05-30T07:22:22.168Z,5396.00
2023-05-30T07:23:22.181Z,5384.00
2023-05-30T07:24:22.126Z,5376.00
2023-05-30T07:25:22.120Z,5372.00
2023-05-30T07:26:22.110Z,5372.00
2023-05-30T07:27:22.119Z,5356.00
2023-05-30T07:28:22.132Z,5364.00
2023-05-30T07:29:22.111Z,5344.00
2023-05-30T07:30:22.111Z,5360.00
2023-05-30T07:31:22.140Z,5396.00
2023-05-30T07:32:22.089Z,5420.00
2023-05-30T07:33:22.099Z,5404.00
2023-05-30T07:34:22.105Z,5440.00
2023-05-30T07:35:22.282Z,5448.00
2023-05-30T07:36:22.282Z,5464.00
2023-05-30T07:37:22.076Z,5500.00
2023-05-30T07:38:22.058Z,5544.00
2023-05-30T07:39:22.041Z,5560.00
2023-05-30T07:40:22.055Z,5528.00
2023-05-30T07:41:22.034Z,5492.00
2023-05-30T07:42:22.010Z,5472.00
2023-05-30T07:43:22.025Z,5440.00
2023-05-30T07:44:22.059Z,5420.00
2023-05-30T07:45:22.004Z,5396.00
2023-05-30T07:46:22.097Z,5384.00
2023-05-30T07:47:22.055Z,5380.00
2023-05-30T07:48:21.998Z,5356.00
2023-05-30T07:49:21.976Z,5356.00
2023-05-30T07:50:22.023Z,5328.00
2023-05-30T07:51:22.079Z,5312.00
2023-05-30T07:52:23.387Z,5304.00
2023-05-30T07:53:21.953Z,5312.00
2023-05-30T07:54:21.972Z,5304.00
2023-05-30T07:55:21.959Z,5296.00
2023-05-30T07:56:21.955Z,5304.00
2023-05-30T07:57:21.946Z,5288.00
2023-05-30T07:58:21.935Z,5272.00
2023-05-30T07:59:21.921Z,5264.00
2023-05-30T08:00:21.968Z,5236.00
2023-05-30T08:01:21.920Z,5232.00
2023-05-30T08:02:21.935Z,5220.00
2023-05-30T08:03:22.063Z,5208.00
2023-05-30T08:04:21.982Z,5204.00
2023-05-30T08:05:21.882Z,5196.00
2023-05-30T08:06:21.922Z,5188.00
2023-05-30T08:07:21.874Z,5188.00
2023-05-30T08:08:21.872Z,5180.00
2023-05-30T08:09:21.943Z,5176.00
2023-05-30T08:10:21.920Z,5180.00
2023-05-30T08:11:21.872Z,5196.00
2023-05-30T08:12:21.978Z,5180.00
2023-05-30T08:13:21.854Z,5184.00
2023-05-30T08:14:21.841Z,5176.00
2023-05-30T08:15:21.830Z,5164.00
2023-05-30T08:16:21.885Z,5156.00
2023-05-30T08:17:21.887Z,5144.00
2023-05-30T08:18:21.820Z,5140.00
2023-05-30T08:19:21.802Z,5132.00
2023-05-30T08:20:21.920Z,5124.00
2023-05-30T08:21:21.819Z,5132.00
2023-05-30T08:22:21.801Z,5140.00
2023-05-30T08:23:21.793Z,5148.00
2023-05-30T08:24:21.877Z,5148.00
2023-05-30T08:25:21.797Z,5136.00
2023-05-30T08:26:21.772Z,5148.00
2023-05-30T08:27:21.871Z,5128.00
2023-05-30T08:28:21.779Z,5116.00
2023-05-30T08:29:21.768Z,5112.00
2023-05-30T08:30:21.810Z,5104.00
2023-05-30T08:31:21.788Z,5124.00
2023-05-30T08:32:21.793Z,5108.00
2023-05-30T08:33:21.767Z,5124.00
2023-05-30T08:34:21.748Z,5116.00
2023-05-30T08:35:21.717Z,5120.00
2023-05-30T08:36:21.725Z,5120.00
2023-05-30T08:37:21.756Z,5120.00
2023-05-30T08:38:21.729Z,5128.00
2023-05-30T08:39:21.700Z,5120.00
2023-05-30T08:40:21.720Z,5116.00
2023-05-30T08:41:21.703Z,5124.00
2023-05-30T08:42:21.725Z,5132.00
2023-05-30T08:43:21.681Z,5132.00
2023-05-30T08:44:21.720Z,5136.00
2023-05-30T08:45:21.706Z,5140.00
2023-05-30T08:46:21.763Z,5144.00
2023-05-30T08:47:23.989Z,5116.00
2023-05-30T08:48:21.672Z,5128.00
2023-05-30T08:49:21.821Z,5108.00
2023-05-30T08:50:21.674Z,5112.00
2023-05-30T08:51:21.650Z,5128.00
2023-05-30T08:52:21.648Z,5108.00
2023-05-30T08:53:21.650Z,5088.00
2023-05-30T08:54:21.688Z,5080.00
2023-05-30T08:55:21.636Z,5092.00
2023-05-30T08:56:21.657Z,5084.00
2023-05-30T08:57:21.616Z,5072.00
2023-05-30T08:58:21.662Z,5076.00
2023-05-30T08:59:21.639Z,5052.00
2023-05-30T09:00:21.642Z,5044.00
2023-05-30T09:01:21.653Z,5044.00
2023-05-30T09:02:21.643Z,5040.00
2023-05-30T09:03:21.619Z,5020.00
2023-05-30T09:04:21.787Z,5028.00
2023-05-30T09:05:21.590Z,5028.00
2023-05-30T09:06:21.581Z,5004.00
2023-05-30T09:07:21.590Z,4984.00
2023-05-30T09:08:21.571Z,4980.00
2023-05-30T09:09:21.550Z,5004.00
2023-05-30T09:10:21.652Z,4984.00
2023-05-30T09:11:21.532Z,4992.00
2023-05-30T09:12:21.529Z,4984.00
2023-05-30T09:13:21.543Z,4980.00
2023-05-30T09:14:21.532Z,4988.00
2023-05-30T09:15:21.534Z,5000.00
2023-05-30T09:16:21.539Z,4992.00
2023-05-30T09:17:21.527Z,4988.00
2023-05-30T09:18:21.540Z,4980.00
2023-05-30T09:19:21.515Z,4972.00
2023-05-30T09:20:21.671Z,4956.00
2023-05-30T09:21:21.485Z,4944.00
2023-05-30T09:22:21.508Z,4948.00
2023-05-30T09:23:21.493Z,4996.00
2023-05-30T09:24:21.474Z,4956.00
2023-05-30T09:25:21.524Z,4936.00
2023-05-30T09:26:21.529Z,4912.00
2023-05-30T09:27:21.467Z,4904.00
2023-05-30T09:28:21.466Z,4900.00
2023-05-30T09:29:21.472Z,4868.00
2023-05-30T09:30:21.452Z,4856.00
2023-05-30T09:31:21.451Z,4860.00
2023-05-30T09:32:21.472Z,4860.00
2023-05-30T09:33:21.443Z,4868.00
2023-05-30T09:34:21.413Z,4840.00
2023-05-30T09:35:21.404Z,4836.00
2023-05-30T09:36:21.624Z,4836.00
2023-05-30T09:37:21.419Z,4832.00
2023-05-30T09:38:21.416Z,4836.00
2023-05-30T09:39:21.410Z,4844.00
2023-05-30T09:40:21.392Z,4820.00
2023-05-30T09:41:21.441Z,4832.00
2023-05-30T09:42:21.395Z,4816.00
2023-05-30T09:43:21.382Z,4816.00
2023-05-30T09:44:21.395Z,4788.00
2023-05-30T09:45:21.612Z,4752.00
2023-05-30T09:46:21.446Z,4768.00
2023-05-30T09:47:21.355Z,4756.00
2023-05-30T09:48:21.371Z,4748.00
2023-05-30T09:49:21.338Z,4736.00
2023-05-30T09:50:21.357Z,4724.00
2023-05-30T09:51:21.340Z,4720.00
2023-05-30T09:52:21.340Z,4716.00
2023-05-30T09:53:21.355Z,4708.00
2023-05-30T09:54:21.344Z,4712.00
2023-05-30T09:55:21.363Z,4708.00
2023-05-30T09:56:21.305Z,4704.00
2023-05-30T09:57:23.981Z,4688.00
2023-05-30T09:58:21.324Z,4672.00
2023-05-30T09:59:21.482Z,4656.00
2023-05-30T10:00:21.312Z,4668.00
2023-05-30T10:01:21.309Z,4680.00
2023-05-30T10:02:21.438Z,4668.00
2023-05-30T10:03:21.344Z,4664.00
2023-05-30T10:04:21.275Z,4660.00
2023-05-30T10:05:21.261Z,4628.00
2023-05-30T10:06:21.256Z,4632.00
2023-05-30T10:07:21.256Z,4588.00
2023-05-30T10:08:21.247Z,4576.00
2023-05-30T10:09:21.260Z,4576.00
2023-05-30T10:10:21.227Z,4556.00
2023-05-30T10:11:21.250Z,4584.00
2023-05-30T10:12:21.244Z,4580.00
2023-05-30T10:13:21.252Z,4572.00
2023-05-30T10:14:21.230Z,4584.00
2023-05-30T10:15:21.226Z,4544.00
2023-05-30T10:16:21.303Z,4544.00
2023-05-30T10:17:21.235Z,4536.00
2023-05-30T10:18:21.261Z,4516.00
2023-05-30T10:19:21.202Z,4480.00
2023-05-30T10:20:21.211Z,4460.00
2023-05-30T10:21:21.183Z,4444.00
2023-05-30T10:22:21.187Z,4424.00
2023-05-30T10:23:21.176Z,4424.00
2023-05-30T10:24:21.196Z,4432.00
2023-05-30T10:25:21.177Z,4416.00
2023-05-30T10:26:21.200Z,4392.00
2023-05-30T10:27:21.165Z,4364.00
2023-05-30T10:28:21.155Z,4388.00
2023-05-30T10:29:21.220Z,4388.00
2023-05-30T10:30:21.143Z,4368.00
2023-05-30T10:31:21.246Z,4356.00
2023-05-30T10:32:21.153Z,4348.00
2023-05-30T10:33:30.022Z,4332.00
2023-05-30T10:34:21.118Z,4324.00
2023-05-30T10:35:21.122Z,4316.00
2023-05-30T10:36:21.112Z,4304.00
2023-05-30T10:37:21.111Z,4276.00
2023-05-30T10:38:21.098Z,4256.00
2023-05-30T10:39:21.112Z,4272.00
2023-05-30T10:40:21.107Z,4256.00
2023-05-30T10:41:21.089Z,4240.00
2023-05-30T10:42:21.086Z,4248.00
2023-05-30T10:43:21.087Z,4240.00
2023-05-30T10:44:21.098Z,4240.00
2023-05-30T10:45:21.104Z,4220.00
2023-05-30T10:46:21.092Z,4200.00
2023-05-30T10:47:21.118Z,4192.00
2023-05-30T10:48:21.053Z,4188.00
2023-05-30T10:49:21.041Z,4180.00
2023-05-30T10:50:21.082Z,4184.00
2023-05-30T10:51:21.031Z,4160.00
2023-05-30T10:52:21.056Z,4148.00
2023-05-30T10:53:21.036Z,4164.00
2023-05-30T10:54:21.115Z,4152.00
2023-05-30T10:55:21.047Z,4148.00
2023-05-30T10:56:21.245Z,4148.00
2023-05-30T10:57:21.022Z,4148.00
2023-05-30T10:58:21.012Z,4116.00
2023-05-30T10:59:21.075Z,4120.00
2023-05-30T11:00:21.020Z,4116.00
2023-05-30T11:01:21.088Z,4104.00
2023-05-30T11:02:21.224Z,4104.00
2023-05-30T11:03:21.153Z,4192.00
2023-05-30T11:04:21.138Z,4240.00
2023-05-30T11:05:20.965Z,4296.00
2023-05-30T11:06:20.985Z,4344.00
2023-05-30T11:07:20.972Z,4372.00
2023-05-30T11:08:20.973Z,4432.00
2023-05-30T11:09:20.960Z,4188.00
2023-05-30T11:10:20.959Z,4056.00
2023-05-30T11:11:20.948Z,4056.00
2023-05-30T11:12:20.983Z,4040.00
2023-05-30T11:13:20.971Z,4052.00
2023-05-30T11:14:20.973Z,4044.00
2023-05-30T11:15:20.936Z,4044.00
2023-05-30T11:16:21.031Z,4044.00
2023-05-30T11:17:20.943Z,4040.00
2023-05-30T11:18:20.937Z,4040.00
2023-05-30T11:19:20.950Z,4040.00
2023-05-30T11:20:20.956Z,4036.00
2023-05-30T11:21:20.912Z,4036.00
2023-05-30T11:22:20.910Z,4032.00
2023-05-30T11:23:20.916Z,4036.00
2023-05-30T11:24:20.887Z,4016.00
2023-05-30T11:25:20.909Z,4020.00
2023-05-30T11:26:20.904Z,4012.00
2023-05-30T11:27:20.877Z,4008.00
2023-05-30T11:28:20.891Z,4008.00
2023-05-30T11:29:20.844Z,3996.00
2023-05-30T11:30:20.870Z,3992.00
2023-05-30T11:31:21.749Z,3980.00
2023-05-30T11:32:21.073Z,3968.00
2023-05-30T11:33:21.047Z,3968.00
2023-05-30T11:34:20.848Z,3976.00
2023-05-30T11:35:20.830Z,3972.00
2023-05-30T11:36:21.269Z,3972.00
2023-05-30T11:37:20.889Z,3960.00
2023-05-30T11:38:20.894Z,3948.00
2023-05-30T11:39:20.807Z,3936.00
2023-05-30T11:40:20.814Z,3940.00
2023-05-30T11:41:20.806Z,3928.00
2023-05-30T11:42:20.787Z,3908.00
2023-05-30T11:43:20.804Z,3912.00
2023-05-30T11:44:20.786Z,3900.00
2023-05-30T11:45:20.768Z,3900.00
2023-05-30T11:46:20.827Z,3896.00
2023-05-30T11:47:43.753Z,3900.00
2023-05-30T11:48:20.835Z,3892.00
2023-05-30T11:49:20.813Z,3880.00
2023-05-30T11:50:20.764Z,3864.00
2023-05-30T11:51:20.752Z,3876.00
2023-05-30T11:52:20.754Z,3876.00
2023-05-30T11:53:20.855Z,3880.00
2023-05-30T11:54:20.756Z,3864.00
2023-05-30T11:55:20.732Z,3872.00
2023-05-30T11:56:20.791Z,3868.00
2023-05-30T11:57:20.714Z,3876.00
2023-05-30T11:58:20.773Z,3872.00
2023-05-30T11:59:20.750Z,3868.00
2023-05-30T12:00:20.753Z,3880.00
2023-05-30T12:01:20.693Z,3884.00
2023-05-30T12:02:20.736Z,3852.00
2023-05-30T12:03:20.782Z,3860.00
2023-05-30T12:04:20.762Z,3864.00
2023-05-30T12:05:20.869Z,3856.00
2023-05-30T12:06:20.747Z,3860.00
2023-05-30T12:07:20.666Z,3856.00
2023-05-30T12:08:20.731Z,3848.00
2023-05-30T12:09:20.680Z,3824.00
2023-05-30T12:10:20.675Z,3840.00
2023-05-30T12:11:20.654Z,3852.00
2023-05-30T12:12:20.638Z,3840.00
2023-05-30T12:13:20.718Z,3864.00
2023-05-30T12:14:20.647Z,3840.00
2023-05-30T12:15:20.636Z,3848.00
2023-05-30T12:16:20.672Z,3852.00
2023-05-30T12:17:20.638Z,3856.00
2023-05-30T12:18:20.775Z,3852.00
2023-05-30T12:19:20.637Z,3856.00
2023-05-30T12:20:20.689Z,3848.00
2023-05-30T12:21:20.646Z,3836.00
2023-05-30T12:22:20.647Z,3836.00
2023-05-30T12:23:20.617Z,3836.00